createdAt,value
2017-08-03T00:00:42.533Z,1008.8
2017-08-03T00:01:44.170Z,1008.8
2017-08-03T00:02:45.812Z,1008.7
2017-08-03T00:03:47.450Z,1008.9
2017-08-03T00:04:49.096Z,1009.0
2017-08-03T00:05:50.733Z,1009.0
2017-08-03T00:06:52.368Z,1008.9
2017-08-03T00:07:54.008Z,1008.9
2017-08-03T00:08:55.648Z,1008.8
2017-08-03T00:09:57.283Z,1008.6
2017-08-03T00:10:58.923Z,1008.6
2017-08-03T00:12:00.564Z,1008.6
2017-08-03T00:13:02.208Z,1008.7
2017-08-03T00:14:03.845Z,1008.8
2017-08-03T00:15:05.478Z,1008.9
2017-08-03T00:16:07.116Z,1009.0
2017-08-03T00:17:08.754Z,1009.0
2017-08-03T00:18:10.393Z,1008.9
2017-08-03T00:19:12.036Z,1008.7
2017-08-03T00:20:13.672Z,1008.7
2017-08-03T00:21:15.309Z,1008.7
2017-08-03T00:22:16.949Z,1008.7
2017-08-03T00:23:18.580Z,1008.8
2017-08-03T00:24:20.221Z,1008.7
2017-08-03T00:25:21.863Z,1008.6
2017-08-03T00:26:23.499Z,1008.5
2017-08-03T00:27:25.138Z,1008.5
2017-08-03T00:28:26.778Z,1008.5
2017-08-03T00:29:28.413Z,1008.5
2017-08-03T00:30:30.051Z,1008.5
2017-08-03T00:31:31.689Z,1008.4
2017-08-03T00:32:33.327Z,1008.4
2017-08-03T00:33:34.967Z,1008.4
2017-08-03T00:34:36.608Z,1008.4
2017-08-03T00:35:38.246Z,1008.3
2017-08-03T00:36:39.889Z,1008.3
2017-08-03T00:37:41.520Z,1008.3
2017-08-03T00:38:43.157Z,1008.2
2017-08-03T00:39:44.798Z,1008.2
2017-08-03T00:40:46.442Z,1008.3
2017-08-03T00:41:48.081Z,1008.2
2017-08-03T00:42:49.716Z,1008.2
2017-08-03T00:43:51.352Z,1008.2
2017-08-03T00:44:52.988Z,1008.1
2017-08-03T00:45:54.627Z,1008.1
2017-08-03T00:46:56.269Z,1008.1
2017-08-03T00:47:57.907Z,1008.0
2017-08-03T00:48:59.550Z,1008.0
2017-08-03T00:50:01.187Z,1008.0
2017-08-03T00:51:02.825Z,1007.9
2017-08-03T00:52:04.481Z,1007.9
2017-08-03T00:53:06.098Z,1007.9
2017-08-03T00:54:07.735Z,1007.9
2017-08-03T00:55:09.376Z,1007.8
2017-08-03T00:56:11.021Z,1007.8
2017-08-03T00:57:12.651Z,1007.7
2017-08-03T00:58:14.295Z,1007.7
2017-08-03T00:59:15.930Z,1007.6
2017-08-03T01:00:17.571Z,1007.6
2017-08-03T01:01:19.209Z,1007.6
2017-08-03T01:02:20.850Z,1007.6
2017-08-03T01:03:22.491Z,1007.5
2017-08-03T01:04:24.129Z,1007.5
2017-08-03T01:05:25.770Z,1007.6
2017-08-03T01:06:27.402Z,1007.5
2017-08-03T01:07:29.066Z,1007.5
2017-08-03T01:08:30.682Z,1007.6
2017-08-03T01:09:32.321Z,1007.6
2017-08-03T01:10:33.959Z,1007.6
2017-08-03T01:11:35.596Z,1007.6
2017-08-03T01:12:37.233Z,1007.5
2017-08-03T01:13:38.871Z,1007.5
2017-08-03T01:14:40.507Z,1007.5
2017-08-03T01:15:42.144Z,1007.6
2017-08-03T01:16:43.784Z,1007.5
2017-08-03T01:17:45.423Z,1007.5
2017-08-03T01:18:47.058Z,1007.5
2017-08-03T01:19:48.694Z,1007.5
2017-08-03T01:20:50.329Z,1007.5
2017-08-03T01:21:51.965Z,1007.5
2017-08-03T01:22:53.602Z,1007.5
2017-08-03T01:23:55.247Z,1007.6
2017-08-03T01:24:56.887Z,1007.5
2017-08-03T01:25:58.521Z,1007.4
2017-08-03T01:27:00.158Z,1007.4
2017-08-03T01:28:01.795Z,1007.3
2017-08-03T01:29:03.433Z,1007.3
2017-08-03T01:30:05.072Z,1007.3
2017-08-03T01:31:06.712Z,1007.3
2017-08-03T01:32:08.349Z,1007.3
2017-08-03T01:33:09.983Z,1007.3
2017-08-03T01:34:11.623Z,1007.3
2017-08-03T01:35:13.268Z,1007.3
2017-08-03T01:36:14.899Z,1007.2
2017-08-03T01:37:16.536Z,1007.2
2017-08-03T01:38:18.166Z,1007.1
2017-08-03T01:39:19.816Z,1007.0
2017-08-03T01:40:21.457Z,1007.0
2017-08-03T01:41:23.092Z,1007.1
2017-08-03T01:42:24.732Z,1007.1
2017-08-03T01:43:26.370Z,1007.1
2017-08-03T01:44:28.008Z,1007.1
2017-08-03T01:45:29.648Z,1007.1
2017-08-03T01:46:31.287Z,1007.1
2017-08-03T01:47:32.927Z,1007.1
2017-08-03T01:48:34.564Z,1007.1
2017-08-03T01:49:36.200Z,1007.1
2017-08-03T01:50:37.842Z,1007.1
2017-08-03T01:51:39.481Z,1007.1
2017-08-03T01:52:41.122Z,1007.0
2017-08-03T01:53:42.760Z,1007.0
2017-08-03T01:54:44.400Z,1007.0
2017-08-03T01:55:46.039Z,1006.9
2017-08-03T01:56:47.677Z,1006.9
2017-08-03T01:57:49.321Z,1007.0
2017-08-03T01:58:50.982Z,1007.1
2017-08-03T01:59:52.598Z,1007.1
2017-08-03T02:00:54.238Z,1007.1
2017-08-03T02:01:55.875Z,1007.1
2017-08-03T02:02:57.513Z,1007.2
2017-08-03T02:03:59.148Z,1007.2
2017-08-03T02:05:00.788Z,1007.2
2017-08-03T02:06:02.448Z,1007.1
2017-08-03T02:07:04.067Z,1007.0
2017-08-03T02:08:05.710Z,1006.9
2017-08-03T02:09:07.346Z,1006.9
2017-08-03T02:10:08.983Z,1007.0
2017-08-03T02:11:10.618Z,1007.1
2017-08-03T02:12:12.255Z,1007.1
2017-08-03T02:13:13.893Z,1007.1
2017-08-03T02:14:15.531Z,1007.1
2017-08-03T02:15:17.172Z,1007.1
2017-08-03T02:16:18.810Z,1007.2
2017-08-03T02:17:20.447Z,1007.1
2017-08-03T02:18:22.088Z,1007.1
2017-08-03T02:19:23.726Z,1007.1
2017-08-03T02:20:25.362Z,1006.9
2017-08-03T02:21:27.002Z,1006.8
2017-08-03T02:22:28.644Z,1006.7
2017-08-03T02:23:30.285Z,1006.7
2017-08-03T02:24:31.912Z,1006.6
2017-08-03T02:25:33.549Z,1006.5
2017-08-03T02:26:35.187Z,1006.4
2017-08-03T02:27:36.827Z,1006.4
2017-08-03T02:28:38.465Z,1006.5
2017-08-03T02:29:40.109Z,1006.5
2017-08-03T02:30:41.742Z,1006.6
2017-08-03T02:31:43.385Z,1006.6
2017-08-03T02:32:45.024Z,1006.6
2017-08-03T02:33:46.661Z,1006.6
2017-08-03T02:34:48.304Z,1006.7
2017-08-03T02:35:49.941Z,1006.6
2017-08-03T02:36:51.580Z,1006.6
2017-08-03T02:37:53.215Z,1006.6
2017-08-03T02:38:54.852Z,1006.6
2017-08-03T02:39:56.488Z,1006.6
2017-08-03T02:40:58.124Z,1006.6
2017-08-03T02:41:59.767Z,1006.6
2017-08-03T02:43:01.406Z,1006.7
2017-08-03T02:44:03.051Z,1006.6
2017-08-03T02:45:04.680Z,1006.6
2017-08-03T02:46:06.314Z,1006.5
2017-08-03T02:47:07.949Z,1006.5
2017-08-03T02:48:09.592Z,1006.5
2017-08-03T02:49:11.231Z,1006.5
2017-08-03T02:50:12.872Z,1006.5
2017-08-03T02:51:14.510Z,1006.5
2017-08-03T02:52:16.146Z,1006.5
2017-08-03T02:53:17.787Z,1006.5
2017-08-03T02:54:19.427Z,1006.4
2017-08-03T02:55:21.062Z,1006.5
2017-08-03T02:56:22.703Z,1006.4
2017-08-03T02:57:24.343Z,1006.5
2017-08-03T02:58:25.984Z,1006.5
2017-08-03T02:59:27.621Z,1006.5
2017-08-03T03:00:29.258Z,1006.5
2017-08-03T03:01:30.896Z,1006.4
2017-08-03T03:02:32.536Z,1006.4
2017-08-03T03:03:34.177Z,1006.3
2017-08-03T03:04:35.812Z,1006.3
2017-08-03T03:05:37.453Z,1006.3
2017-08-03T03:06:39.091Z,1006.3
2017-08-03T03:07:40.730Z,1006.3
2017-08-03T03:08:42.369Z,1006.3
2017-08-03T03:09:44.006Z,1006.2
2017-08-03T03:10:45.646Z,1006.2
2017-08-03T03:11:47.283Z,1006.2
2017-08-03T03:12:48.926Z,1006.2
2017-08-03T03:13:50.564Z,1006.3
2017-08-03T03:14:52.199Z,1006.3
2017-08-03T03:15:53.835Z,1006.3
2017-08-03T03:16:55.473Z,1006.3
2017-08-03T03:17:57.120Z,1006.2
2017-08-03T03:18:58.754Z,1006.2
2017-08-03T03:20:00.393Z,1006.2
2017-08-03T03:21:02.027Z,1006.2
2017-08-03T03:22:03.665Z,1006.2
2017-08-03T03:23:05.305Z,1006.2
2017-08-03T03:24:06.940Z,1006.2
2017-08-03T03:25:08.582Z,1006.2
2017-08-03T03:26:10.220Z,1006.2
2017-08-03T03:27:11.863Z,1006.2
2017-08-03T03:28:13.496Z,1006.1
2017-08-03T03:29:15.134Z,1006.1
2017-08-03T03:30:16.772Z,1006.0
2017-08-03T03:31:18.413Z,1006.0
2017-08-03T03:32:20.051Z,1005.9
2017-08-03T03:33:21.690Z,1005.9
2017-08-03T03:34:23.332Z,1005.9
2017-08-03T03:35:24.966Z,1005.8
2017-08-03T03:36:26.607Z,1005.8
2017-08-03T03:37:28.244Z,1005.7
2017-08-03T03:38:29.881Z,1005.5
2017-08-03T03:39:31.518Z,1005.5
2017-08-03T03:40:33.159Z,1005.4
2017-08-03T03:41:34.797Z,1005.4
2017-08-03T03:42:36.436Z,1005.2
2017-08-03T03:43:38.072Z,1005.2
2017-08-03T03:44:39.712Z,1005.3
2017-08-03T03:45:41.353Z,1005.5
2017-08-03T03:46:42.989Z,1005.6
2017-08-03T03:47:44.631Z,1005.6
2017-08-03T03:48:46.265Z,1005.7
2017-08-03T03:49:47.908Z,1005.7
2017-08-03T03:50:49.542Z,1005.9
2017-08-03T03:51:51.178Z,1005.8
2017-08-03T03:52:52.814Z,1005.9
2017-08-03T03:53:54.458Z,1005.9
2017-08-03T03:54:56.095Z,1005.9
2017-08-03T03:55:57.734Z,1005.8
2017-08-03T03:56:59.374Z,1005.7
2017-08-03T03:58:01.009Z,1005.7
2017-08-03T03:59:02.643Z,1005.8
2017-08-03T04:00:04.283Z,1005.8
2017-08-03T04:01:05.924Z,1005.7
2017-08-03T04:02:07.567Z,1005.8
2017-08-03T04:03:09.203Z,1005.8
2017-08-03T04:04:10.837Z,1005.7
2017-08-03T04:05:12.474Z,1005.8
2017-08-03T04:06:14.114Z,1005.7
2017-08-03T04:07:15.754Z,1005.7
2017-08-03T04:08:17.394Z,1005.7
2017-08-03T04:09:19.043Z,1005.7
2017-08-03T04:10:20.683Z,1005.6
2017-08-03T04:11:22.324Z,1005.6
2017-08-03T04:12:23.961Z,1005.6
2017-08-03T04:13:25.597Z,1005.7
2017-08-03T04:14:27.236Z,1005.7
2017-08-03T04:15:28.873Z,1005.7
2017-08-03T04:16:30.513Z,1005.7
2017-08-03T04:17:32.157Z,1005.7
2017-08-03T04:18:33.798Z,1005.7
2017-08-03T04:19:35.431Z,1005.7
2017-08-03T04:20:37.077Z,1005.7
2017-08-03T04:21:38.713Z,1005.6
2017-08-03T04:22:40.356Z,1005.6
2017-08-03T04:23:41.994Z,1005.6
2017-08-03T04:24:43.633Z,1005.6
2017-08-03T04:25:45.270Z,1005.6
2017-08-03T04:26:46.909Z,1005.6
2017-08-03T04:27:48.545Z,1005.6
2017-08-03T04:28:50.181Z,1005.5
2017-08-03T04:29:51.822Z,1005.5
2017-08-03T04:30:53.466Z,1005.4
2017-08-03T04:31:55.105Z,1005.3
2017-08-03T04:32:56.742Z,1005.2
2017-08-03T04:33:58.379Z,1005.2
2017-08-03T04:35:00.019Z,1005.2
2017-08-03T04:36:01.658Z,1005.2
2017-08-03T04:37:03.297Z,1005.2
2017-08-03T04:38:04.938Z,1005.3
2017-08-03T04:39:06.578Z,1005.4
2017-08-03T04:40:08.218Z,1005.5
2017-08-03T04:41:09.866Z,1005.5
2017-08-03T04:42:11.496Z,1005.6
2017-08-03T04:43:13.137Z,1005.5
2017-08-03T04:44:14.781Z,1005.5
2017-08-03T04:45:16.419Z,1005.5
2017-08-03T04:46:18.061Z,1005.4
2017-08-03T04:47:19.693Z,1005.4
2017-08-03T04:48:21.334Z,1005.3
2017-08-03T04:49:22.970Z,1005.3
2017-08-03T04:50:24.609Z,1005.3
2017-08-03T04:51:26.253Z,1005.3
2017-08-03T04:52:27.892Z,1005.3
2017-08-03T04:53:29.531Z,1005.3
2017-08-03T04:54:31.166Z,1005.3
2017-08-03T04:55:32.808Z,1005.3
2017-08-03T04:56:34.443Z,1005.2
2017-08-03T04:57:36.084Z,1005.2
2017-08-03T04:58:37.726Z,1005.3
2017-08-03T04:59:39.360Z,1005.3
2017-08-03T05:00:41.003Z,1005.3
2017-08-03T05:01:42.641Z,1005.3
2017-08-03T05:02:44.291Z,1005.2
2017-08-03T05:03:45.925Z,1005.3
2017-08-03T05:04:47.567Z,1005.4
2017-08-03T05:05:49.205Z,1005.5
2017-08-03T05:06:50.846Z,1005.5
2017-08-03T05:07:52.490Z,1005.5
2017-08-03T05:08:54.130Z,1005.5
2017-08-03T05:09:55.769Z,1005.5
2017-08-03T05:10:57.405Z,1005.5
2017-08-03T05:11:59.044Z,1005.5
2017-08-03T05:13:00.687Z,1005.6
2017-08-03T05:14:02.328Z,1005.5
2017-08-03T05:15:03.971Z,1005.5
2017-08-03T05:16:05.609Z,1005.5
2017-08-03T05:17:07.243Z,1005.4
2017-08-03T05:18:08.883Z,1005.4
2017-08-03T05:19:10.522Z,1005.4
2017-08-03T05:20:12.163Z,1005.5
2017-08-03T05:21:13.800Z,1005.5
2017-08-03T05:22:15.444Z,1005.6
2017-08-03T05:23:17.080Z,1005.6
2017-08-03T05:24:18.723Z,1005.6
2017-08-03T05:25:20.360Z,1005.6
2017-08-03T05:26:21.999Z,1005.7
2017-08-03T05:27:23.638Z,1005.9
2017-08-03T05:28:25.283Z,1005.9
2017-08-03T05:29:26.925Z,1006.0
2017-08-03T05:30:28.561Z,1006.1
2017-08-03T05:31:30.204Z,1006.1
2017-08-03T05:32:31.842Z,1006.1
2017-08-03T05:33:33.481Z,1006.0
2017-08-03T05:34:35.118Z,1005.9
2017-08-03T05:35:36.762Z,1005.9
2017-08-03T05:36:38.404Z,1005.8
2017-08-03T05:37:40.043Z,1005.8
2017-08-03T05:38:41.682Z,1005.8
2017-08-03T05:39:43.321Z,1005.7
2017-08-03T05:40:44.960Z,1005.6
2017-08-03T05:41:46.601Z,1005.5
2017-08-03T05:42:48.243Z,1005.5
2017-08-03T05:43:49.883Z,1005.6
2017-08-03T05:44:51.519Z,1005.6
2017-08-03T05:45:53.158Z,1005.5
2017-08-03T05:46:54.796Z,1005.4
2017-08-03T05:47:56.437Z,1005.4
2017-08-03T05:48:58.076Z,1005.4
2017-08-03T05:49:59.719Z,1005.4
2017-08-03T05:51:01.361Z,1005.4
2017-08-03T05:52:02.997Z,1005.4
2017-08-03T05:53:04.631Z,1005.4
2017-08-03T05:54:07.584Z,1005.4
2017-08-03T05:55:09.224Z,1005.4
2017-08-03T05:56:10.867Z,1005.4
2017-08-03T05:57:12.513Z,1005.4
2017-08-03T05:58:14.145Z,1005.4
2017-08-03T05:59:15.780Z,1005.4
2017-08-03T06:00:17.413Z,1005.4
2017-08-03T06:01:19.051Z,1005.4
2017-08-03T06:02:20.692Z,1005.4
2017-08-03T06:03:22.333Z,1005.4
2017-08-03T06:04:23.975Z,1005.4
2017-08-03T06:05:25.613Z,1005.4
2017-08-03T06:06:27.251Z,1005.4
2017-08-03T06:07:28.891Z,1005.4
2017-08-03T06:08:30.528Z,1005.3
2017-08-03T06:09:32.165Z,1005.3
2017-08-03T06:10:33.807Z,1005.3
2017-08-03T06:11:35.450Z,1005.4
2017-08-03T06:12:37.089Z,1005.4
2017-08-03T06:13:38.722Z,1005.4
2017-08-03T06:14:40.360Z,1005.5
2017-08-03T06:15:42.000Z,1005.4
2017-08-03T06:16:43.636Z,1005.4
2017-08-03T06:17:45.278Z,1005.4
2017-08-03T06:18:46.919Z,1005.3
2017-08-03T06:19:48.556Z,1005.3
2017-08-03T06:20:50.200Z,1005.4
2017-08-03T06:21:51.837Z,1005.4
2017-08-03T06:22:53.475Z,1005.4
2017-08-03T06:23:55.117Z,1005.4
2017-08-03T06:24:56.754Z,1005.4
2017-08-03T06:25:58.394Z,1005.4
2017-08-03T06:27:00.037Z,1005.5
2017-08-03T06:28:01.675Z,1005.4
2017-08-03T06:29:03.313Z,1005.4
2017-08-03T06:30:04.954Z,1005.5
2017-08-03T06:31:06.591Z,1005.4
2017-08-03T06:32:08.233Z,1005.4
2017-08-03T06:33:09.872Z,1005.4
2017-08-03T06:34:11.511Z,1005.4
2017-08-03T06:35:13.151Z,1005.4
2017-08-03T06:36:14.786Z,1005.5
2017-08-03T06:37:16.424Z,1005.5
2017-08-03T06:38:18.068Z,1005.5
2017-08-03T06:39:19.711Z,1005.5
2017-08-03T06:40:21.366Z,1005.5
2017-08-03T06:41:23.009Z,1005.5
2017-08-03T06:42:24.649Z,1005.4
2017-08-03T06:43:26.286Z,1005.4
2017-08-03T06:44:27.925Z,1005.4
2017-08-03T06:45:30.129Z,1005.4
2017-08-03T06:46:31.771Z,1005.4
2017-08-03T06:47:33.415Z,1005.4
2017-08-03T06:48:35.055Z,1005.4
2017-08-03T06:49:36.693Z,1005.4
2017-08-03T06:50:38.336Z,1005.4
2017-08-03T06:51:39.971Z,1005.4
2017-08-03T06:52:41.613Z,1005.4
2017-08-03T06:53:43.258Z,1005.5
2017-08-03T06:54:44.892Z,1005.6
2017-08-03T06:55:46.536Z,1005.5
2017-08-03T06:56:48.171Z,1005.5
2017-08-03T06:57:49.811Z,1005.6
2017-08-03T06:58:51.452Z,1005.6
2017-08-03T06:59:53.092Z,1005.7
2017-08-03T07:00:54.735Z,1005.7
2017-08-03T07:01:56.373Z,1005.8
2017-08-03T07:02:58.013Z,1005.8
2017-08-03T07:03:59.648Z,1005.8
2017-08-03T07:05:01.288Z,1005.7
2017-08-03T07:06:02.932Z,1005.8
2017-08-03T07:07:04.570Z,1005.8
2017-08-03T07:08:06.207Z,1005.8
2017-08-03T07:09:07.849Z,1005.8
2017-08-03T07:10:09.491Z,1005.7
2017-08-03T07:11:11.130Z,1005.7
2017-08-03T07:12:15.551Z,1005.7
2017-08-03T07:13:17.188Z,1005.7
2017-08-03T07:14:18.830Z,1005.7
2017-08-03T07:15:20.474Z,1005.8
2017-08-03T07:16:22.114Z,1005.8
2017-08-03T07:17:23.755Z,1005.7
2017-08-03T07:18:25.394Z,1005.7
2017-08-03T07:19:27.032Z,1005.7
2017-08-03T07:20:28.675Z,1005.7
2017-08-03T07:21:30.318Z,1005.7
2017-08-03T07:22:31.964Z,1005.7
2017-08-03T07:23:33.600Z,1005.6
2017-08-03T07:24:35.241Z,1005.6
2017-08-03T07:25:36.883Z,1005.6
2017-08-03T07:26:38.521Z,1005.6
2017-08-03T07:27:40.160Z,1005.6
2017-08-03T07:28:41.800Z,1005.6
2017-08-03T07:29:43.440Z,1005.6
2017-08-03T07:30:45.078Z,1005.5
2017-08-03T07:31:46.749Z,1005.6
2017-08-03T07:32:48.388Z,1005.6
2017-08-03T07:33:50.025Z,1005.6
2017-08-03T07:34:51.666Z,1005.6
2017-08-03T07:35:53.303Z,1005.6
2017-08-03T07:36:54.947Z,1005.6
2017-08-03T07:37:56.589Z,1005.5
2017-08-03T07:38:58.229Z,1005.6
2017-08-03T07:39:59.871Z,1005.6
2017-08-03T07:41:01.511Z,1005.6
2017-08-03T07:42:03.147Z,1005.5
2017-08-03T07:43:04.787Z,1005.6
2017-08-03T07:44:06.426Z,1005.6
2017-08-03T07:45:08.066Z,1005.6
2017-08-03T07:46:09.705Z,1005.6
2017-08-03T07:47:11.345Z,1005.6
2017-08-03T07:48:12.983Z,1005.6
2017-08-03T07:49:14.623Z,1005.6
2017-08-03T07:50:16.262Z,1005.6
2017-08-03T07:51:17.902Z,1005.6
2017-08-03T07:52:19.546Z,1005.6
2017-08-03T07:53:21.189Z,1005.7
2017-08-03T07:54:22.950Z,1005.7
2017-08-03T07:55:24.671Z,1005.7
2017-08-03T07:56:26.315Z,1005.7
2017-08-03T07:57:27.967Z,1005.8
2017-08-03T07:58:29.610Z,1005.8
2017-08-03T07:59:31.248Z,1005.7
2017-08-03T08:00:32.912Z,1005.7
2017-08-03T08:01:34.549Z,1005.7
2017-08-03T08:02:36.190Z,1005.8
2017-08-03T08:03:37.828Z,1005.9
2017-08-03T08:04:39.467Z,1005.9
2017-08-03T08:05:41.117Z,1005.9
2017-08-03T08:06:42.763Z,1005.8
2017-08-03T08:07:44.405Z,1005.9
2017-08-03T08:08:46.040Z,1005.9
2017-08-03T08:09:47.676Z,1005.8
2017-08-03T08:10:49.316Z,1005.8
2017-08-03T08:11:50.986Z,1005.9
2017-08-03T08:12:52.636Z,1005.9
2017-08-03T08:13:54.275Z,1006.0
2017-08-03T08:14:55.913Z,1006.0
2017-08-03T08:15:57.720Z,1006.0
2017-08-03T08:16:59.416Z,1006.0
2017-08-03T08:18:01.055Z,1006.1
2017-08-03T08:19:02.697Z,1006.0
2017-08-03T08:20:04.341Z,1006.0
2017-08-03T08:21:05.978Z,1006.0
2017-08-03T08:22:07.619Z,1006.0
2017-08-03T08:23:09.260Z,1005.9
2017-08-03T08:24:10.897Z,1006.0
2017-08-03T08:25:12.535Z,1006.0
2017-08-03T08:26:14.171Z,1006.0
2017-08-03T08:27:15.815Z,1006.1
2017-08-03T08:28:17.457Z,1006.1
2017-08-03T08:29:19.096Z,1006.0
2017-08-03T08:30:20.733Z,1006.0
2017-08-03T08:31:22.373Z,1006.0
2017-08-03T08:32:24.010Z,1005.9
2017-08-03T08:33:25.651Z,1006.0
2017-08-03T08:34:27.334Z,1006.1
2017-08-03T08:35:28.977Z,1006.0
2017-08-03T08:36:30.617Z,1005.8
2017-08-03T08:37:32.251Z,1005.7
2017-08-03T08:38:33.890Z,1005.7
2017-08-03T08:39:35.533Z,1005.8
2017-08-03T08:40:37.166Z,1005.8
2017-08-03T08:41:38.809Z,1005.8
2017-08-03T08:42:40.451Z,1005.8
2017-08-03T08:43:42.091Z,1005.8
2017-08-03T08:44:43.735Z,1005.8
2017-08-03T08:45:45.372Z,1005.7
2017-08-03T08:46:47.008Z,1005.5
2017-08-03T08:47:48.648Z,1005.4
2017-08-03T08:48:50.407Z,1005.4
2017-08-03T08:49:52.048Z,1005.3
2017-08-03T08:50:53.690Z,1005.4
2017-08-03T08:51:55.328Z,1005.5
2017-08-03T08:52:56.965Z,1005.5
2017-08-03T08:53:58.784Z,1005.5
2017-08-03T08:55:00.403Z,1005.5
2017-08-03T08:56:02.041Z,1005.5
2017-08-03T08:57:03.684Z,1005.5
2017-08-03T08:58:05.330Z,1005.4
2017-08-03T08:59:07.173Z,1005.4
2017-08-03T09:00:08.819Z,1005.5
2017-08-03T09:01:10.458Z,1005.7
2017-08-03T09:02:12.096Z,1005.7
2017-08-03T09:03:13.740Z,1005.7
2017-08-03T09:04:15.391Z,1005.8
2017-08-03T09:05:17.098Z,1005.8
2017-08-03T09:06:18.738Z,1005.6
2017-08-03T09:07:20.372Z,1005.5
2017-08-03T09:08:22.014Z,1005.4
2017-08-03T09:09:23.656Z,1005.3
2017-08-03T09:10:25.296Z,1005.4
2017-08-03T09:11:26.934Z,1005.5
2017-08-03T09:12:28.579Z,1005.6
2017-08-03T09:13:30.216Z,1005.5
2017-08-03T09:14:31.925Z,1005.7
2017-08-03T09:15:33.541Z,1005.8
2017-08-03T09:16:35.177Z,1005.8
2017-08-03T09:17:36.829Z,1005.8
2017-08-03T09:18:38.459Z,1005.8
2017-08-03T09:19:40.105Z,1005.7
2017-08-03T09:20:41.740Z,1005.5
2017-08-03T09:21:43.383Z,1005.6
2017-08-03T09:22:45.022Z,1005.6
2017-08-03T09:23:46.663Z,1005.5
2017-08-03T09:24:48.308Z,1005.5
2017-08-03T09:25:49.951Z,1005.3
2017-08-03T09:26:51.589Z,1005.2
2017-08-03T09:27:53.232Z,1005.2
2017-08-03T09:28:54.898Z,1005.2
2017-08-03T09:29:56.561Z,1005.1
2017-08-03T09:30:58.199Z,1005.1
2017-08-03T09:31:59.841Z,1005.1
2017-08-03T09:33:01.480Z,1005.0
2017-08-03T09:34:03.139Z,1005.0
2017-08-03T09:35:04.777Z,1004.9
2017-08-03T09:36:06.517Z,1004.9
2017-08-03T09:37:08.153Z,1004.9
2017-08-03T09:38:09.796Z,1004.9
2017-08-03T09:39:11.441Z,1005.0
2017-08-03T09:40:13.079Z,1005.0
2017-08-03T09:41:14.719Z,1005.0
2017-08-03T09:42:16.356Z,1005.0
2017-08-03T09:43:18.039Z,1005.1
2017-08-03T09:44:19.661Z,1005.1
2017-08-03T09:45:21.305Z,1005.1
2017-08-03T09:46:22.950Z,1005.2
2017-08-03T09:47:24.763Z,1005.2
2017-08-03T09:48:26.411Z,1005.3
2017-08-03T09:49:28.048Z,1005.3
2017-08-03T09:50:29.696Z,1005.4
2017-08-03T09:51:31.337Z,1005.4
2017-08-03T09:52:32.983Z,1005.4
2017-08-03T09:53:34.622Z,1005.4
2017-08-03T09:54:36.263Z,1005.4
2017-08-03T09:55:37.906Z,1005.4
2017-08-03T09:56:39.548Z,1005.3
2017-08-03T09:57:41.185Z,1005.3
2017-08-03T09:58:42.824Z,1005.3
2017-08-03T09:59:44.461Z,1005.2
2017-08-03T10:00:46.101Z,1005.2
2017-08-03T10:01:47.745Z,1005.2
2017-08-03T10:02:49.384Z,1005.2
2017-08-03T10:03:51.022Z,1005.1
2017-08-03T10:04:52.663Z,1005.1
2017-08-03T10:05:54.298Z,1005.1
2017-08-03T10:06:55.936Z,1005.1
2017-08-03T10:07:57.579Z,1005.1
2017-08-03T10:08:59.223Z,1005.1
2017-08-03T10:10:00.867Z,1005.1
2017-08-03T10:11:02.502Z,1005.1
2017-08-03T10:12:04.141Z,1005.1
2017-08-03T10:13:05.788Z,1005.1
2017-08-03T10:14:07.426Z,1005.0
2017-08-03T10:15:09.068Z,1005.0
2017-08-03T10:16:10.709Z,1005.0
2017-08-03T10:17:12.352Z,1005.0
2017-08-03T10:18:13.990Z,1005.1
2017-08-03T10:19:15.629Z,1005.1
2017-08-03T10:20:17.293Z,1005.1
2017-08-03T10:21:18.934Z,1005.1
2017-08-03T10:22:20.677Z,1005.1
2017-08-03T10:23:22.320Z,1005.1
2017-08-03T10:24:23.962Z,1005.2
2017-08-03T10:25:25.731Z,1005.2
2017-08-03T10:26:27.376Z,1005.2
2017-08-03T10:27:29.047Z,1005.3
2017-08-03T10:28:30.738Z,1005.3
2017-08-03T10:29:32.376Z,1005.3
2017-08-03T10:30:34.018Z,1005.4
2017-08-03T10:31:35.664Z,1005.3
2017-08-03T10:32:37.509Z,1005.3
2017-08-03T10:33:39.150Z,1005.3
2017-08-03T10:34:40.789Z,1005.4
2017-08-03T10:35:42.431Z,1005.3
2017-08-03T10:36:44.072Z,1005.4
2017-08-03T10:37:45.712Z,1005.4
2017-08-03T10:38:47.360Z,1005.4
2017-08-03T10:39:49.873Z,1005.4
2017-08-03T10:40:51.491Z,1005.4
2017-08-03T10:41:53.137Z,1005.4
2017-08-03T10:42:54.770Z,1005.4
2017-08-03T10:43:56.410Z,1005.4
2017-08-03T10:44:58.076Z,1005.4
2017-08-03T10:45:59.798Z,1005.5
2017-08-03T10:47:01.392Z,1005.5
2017-08-03T10:48:03.031Z,1005.4
2017-08-03T10:49:04.670Z,1005.6
2017-08-03T10:50:06.310Z,1005.5
2017-08-03T10:51:07.951Z,1005.5
2017-08-03T10:52:09.588Z,1005.6
2017-08-03T10:53:11.267Z,1005.5
2017-08-03T10:54:12.911Z,1005.6
2017-08-03T10:55:14.551Z,1005.7
2017-08-03T10:56:16.192Z,1005.6
2017-08-03T10:57:17.831Z,1005.6
2017-08-03T10:58:19.473Z,1005.6
2017-08-03T10:59:21.116Z,1005.7
2017-08-03T11:00:23.400Z,1005.7
2017-08-03T11:01:25.062Z,1005.7
2017-08-03T11:02:26.714Z,1005.8
2017-08-03T11:03:28.349Z,1005.7
2017-08-03T11:04:30.017Z,1005.7
2017-08-03T11:05:31.659Z,1005.7
2017-08-03T11:06:33.300Z,1005.8
2017-08-03T11:07:34.950Z,1005.7
2017-08-03T11:08:36.586Z,1005.7
2017-08-03T11:09:38.228Z,1005.7
2017-08-03T11:10:39.864Z,1005.7
2017-08-03T11:11:41.508Z,1005.7
2017-08-03T11:12:43.149Z,1005.7
2017-08-03T11:13:44.793Z,1005.7
2017-08-03T11:14:46.437Z,1005.8
2017-08-03T11:15:48.075Z,1005.8
2017-08-03T11:16:49.712Z,1005.8
2017-08-03T11:17:51.353Z,1005.7
2017-08-03T11:18:52.996Z,1005.7
2017-08-03T11:19:54.637Z,1005.7
2017-08-03T11:20:56.280Z,1005.7
2017-08-03T11:21:57.923Z,1005.7
2017-08-03T11:22:59.559Z,1005.7
2017-08-03T11:24:01.300Z,1005.8
2017-08-03T11:25:02.941Z,1005.8
2017-08-03T11:26:04.581Z,1005.8
2017-08-03T11:27:06.218Z,1005.8
2017-08-03T11:28:07.860Z,1005.8
2017-08-03T11:29:09.500Z,1005.8
2017-08-03T11:30:11.159Z,1005.8
2017-08-03T11:31:12.799Z,1005.8
2017-08-03T11:32:14.437Z,1005.9
2017-08-03T11:33:16.075Z,1005.9
2017-08-03T11:34:17.713Z,1006.0
2017-08-03T11:35:19.357Z,1006.0
2017-08-03T11:36:20.999Z,1006.0
2017-08-03T11:37:22.635Z,1006.0
2017-08-03T11:38:24.290Z,1006.1
2017-08-03T11:39:25.927Z,1006.0
2017-08-03T11:40:27.567Z,1006.1
2017-08-03T11:41:29.211Z,1006.1
2017-08-03T11:42:30.855Z,1006.1
2017-08-03T11:43:32.498Z,1006.1
2017-08-03T11:44:34.637Z,1006.0
2017-08-03T11:45:36.282Z,1006.1
2017-08-03T11:46:37.923Z,1006.0
2017-08-03T11:47:39.569Z,1006.0
2017-08-03T11:48:41.211Z,1006.1
2017-08-03T11:49:42.851Z,1006.0
2017-08-03T11:50:44.499Z,1006.0
2017-08-03T11:51:47.957Z,1006.0
2017-08-03T11:52:49.598Z,1006.0
2017-08-03T11:53:51.238Z,1005.9
2017-08-03T11:54:52.881Z,1006.0
2017-08-03T11:55:54.526Z,1006.0
2017-08-03T11:56:56.753Z,1005.9
2017-08-03T11:57:58.399Z,1006.0
2017-08-03T11:59:00.033Z,1005.9
2017-08-03T12:00:01.681Z,1006.0
2017-08-03T12:01:03.322Z,1006.0
2017-08-03T12:02:05.034Z,1006.0
2017-08-03T12:03:08.949Z,1005.9
2017-08-03T12:04:11.738Z,1005.9
2017-08-03T12:05:13.378Z,1005.9
2017-08-03T12:06:15.020Z,1005.9
2017-08-03T12:07:16.664Z,1005.9
2017-08-03T12:08:18.310Z,1005.9
2017-08-03T12:09:19.948Z,1005.9
2017-08-03T12:10:21.595Z,1005.8
2017-08-03T12:11:23.234Z,1005.9
2017-08-03T12:12:24.878Z,1005.9
2017-08-03T12:13:26.522Z,1006.0
2017-08-03T12:14:28.161Z,1005.8
2017-08-03T12:15:29.808Z,1005.9
2017-08-03T12:16:31.450Z,1005.9
2017-08-03T12:17:33.089Z,1006.0
2017-08-03T12:18:34.735Z,1005.9
2017-08-03T12:19:36.382Z,1005.8
2017-08-03T12:20:38.023Z,1005.8
2017-08-03T12:21:39.666Z,1005.8
2017-08-03T12:22:41.309Z,1005.8
2017-08-03T12:23:42.954Z,1005.7
2017-08-03T12:24:44.598Z,1005.8
2017-08-03T12:25:48.401Z,1005.8
2017-08-03T12:26:50.052Z,1005.9
2017-08-03T12:27:51.689Z,1005.8
2017-08-03T12:28:53.330Z,1005.9
2017-08-03T12:29:54.977Z,1005.9
2017-08-03T12:30:59.050Z,1005.9
2017-08-03T12:32:00.695Z,1005.9
2017-08-03T12:33:02.348Z,1006.0
2017-08-03T12:34:03.989Z,1005.9
2017-08-03T12:35:05.631Z,1005.9
2017-08-03T12:36:09.557Z,1006.0
2017-08-03T12:37:11.197Z,1006.0
2017-08-03T12:38:12.837Z,1005.9
2017-08-03T12:39:14.485Z,1006.0
2017-08-03T12:40:16.129Z,1005.9
2017-08-03T12:41:17.774Z,1005.9
2017-08-03T12:42:19.414Z,1005.8
2017-08-03T12:43:21.056Z,1005.9
2017-08-03T12:44:22.700Z,1005.9
2017-08-03T12:45:24.342Z,1005.9
2017-08-03T12:46:25.983Z,1005.7
2017-08-03T12:47:27.626Z,1005.8
2017-08-03T12:48:29.274Z,1005.8
2017-08-03T12:49:30.919Z,1005.7